Time;durP1;ratioP1;P1;durP2;ratioP2;P2;SDS_P1;SDS_P2;PMS_P1;PMS_P2;Temp;Humidity;BMP_temperature;BMP_pressure;BME280_temperature;BME280_humidity;BME280_pressure;Samples;Min_cycle;Max_cycle;Signal;HPM_P1;HPM_P2
2022/08/31 00:08:35;;;;;;;10.13;6.22;;;;;;;19.75;100.00;100541.81;20827595;28;20049;-68
2022/08/31 00:18:37;;;;;;;12.20;7.45;;;;;;;19.66;100.00;100513.06;20827531;28;20053;-69
2022/08/31 00:28:38;;;;;;;10.80;7.15;;;;;;;19.54;100.00;100533.09;20825758;28;20050;-69
2022/08/31 00:38:39;;;;;;;11.55;7.30;;;;;;;19.50;100.00;100528.91;20825318;28;20518;-69
2022/08/31 00:48:41;;;;;;;10.18;7.40;;;;;;;19.29;100.00;100527.31;20825453;28;20557;-69
2022/08/31 00:58:43;;;;;;;8.98;7.07;;;;;;;19.21;100.00;100527.69;20824527;28;20055;-69
2022/08/31 01:08:48;;;;;;;9.60;6.43;;;;;;;19.26;100.00;100533.66;20822641;28;20045;-68
2022/08/31 01:18:50;;;;;;;9.00;6.07;;;;;;;19.32;100.00;100537.78;20822216;28;20056;-68
2022/08/31 01:28:51;;;;;;;10.98;6.45;;;;;;;19.37;100.00;100538.41;20821972;28;20053;-68
2022/08/31 01:38:52;;;;;;;8.68;6.00;;;;;;;19.13;100.00;100538.69;20821861;28;20057;-68
2022/08/31 01:48:54;;;;;;;8.85;6.05;;;;;;;19.07;100.00;100533.69;20820184;28;20053;-68
2022/08/31 01:58:55;;;;;;;9.15;6.28;;;;;;;18.98;100.00;100534.13;20819980;28;20060;-68
2022/08/31 02:08:57;;;;;;;9.25;6.22;;;;;;;19.10;100.00;100527.34;20820476;28;20049;-68
2022/08/31 02:18:58;;;;;;;10.13;6.78;;;;;;;18.98;100.00;100507.59;20818121;28;20056;-68
2022/08/31 02:29:00;;;;;;;9.77;6.90;;;;;;;18.93;100.00;100497.22;20818300;28;20710;-68
2022/08/31 02:39:02;;;;;;;10.40;7.32;;;;;;;18.87;100.00;100484.22;20817422;28;20045;-68
2022/08/31 02:49:06;;;;;;;12.30;7.27;;;;;;;18.63;100.00;100485.38;20817451;28;20053;-68
2022/08/31 02:59:07;;;;;;;10.18;7.15;;;;;;;18.64;100.00;100493.28;20829607;28;20053;-68
2022/08/31 03:09:08;;;;;;;9.52;7.07;;;;;;;18.69;100.00;100480.69;20832949;28;20547;-68
2022/08/31 03:19:10;;;;;;;13.30;8.30;;;;;;;18.46;100.00;100484.38;20832153;28;20068;-68
2022/08/31 03:29:12;;;;;;;11.85;8.02;;;;;;;18.42;100.00;100490.75;20831560;28;20053;-68
2022/08/31 03:39:13;;;;;;;13.73;8.23;;;;;;;18.32;100.00;100512.47;20813841;28;20050;-68
2022/08/31 03:49:14;;;;;;;10.30;7.88;;;;;;;18.33;100.00;100524.78;20748185;28;20414;-68
2022/08/31 03:59:16;;;;;;;10.88;7.55;;;;;;;18.40;100.00;100531.53;20755789;28;20056;-68
2022/08/31 04:09:17;;;;;;;11.80;7.63;;;;;;;18.35;100.00;100536.16;20745820;28;20058;-69
2022/08/31 04:19:19;;;;;;;10.88;8.10;;;;;;;18.52;100.00;100544.22;20749740;28;20442;-69
2022/08/31 04:29:20;;;;;;;11.93;7.88;;;;;;;18.58;100.00;100543.94;20745830;28;20054;-68
2022/08/31 04:39:22;;;;;;;10.63;7.28;;;;;;;18.69;100.00;100544.34;20811405;28;20056;-68
2022/08/31 04:49:24;;;;;;;10.52;7.65;;;;;;;18.69;100.00;100554.94;20827211;28;20053;-68
2022/08/31 04:59:26;;;;;;;10.57;7.63;;;;;;;18.80;100.00;100553.56;20825109;28;20049;-68
2022/08/31 05:09:28;;;;;;;12.95;8.25;;;;;;;18.75;100.00;100552.94;20824656;28;20391;-68
2022/08/31 05:19:30;;;;;;;11.48;8.35;;;;;;;18.78;100.00;100566.03;20823831;28;20199;-68
2022/08/31 05:29:32;;;;;;;11.70;7.90;;;;;;;18.75;100.00;100577.66;20820802;28;20060;-68
2022/08/31 05:39:33;;;;;;;11.02;7.63;;;;;;;18.91;100.00;100581.31;20744922;28;20525;-68
2022/08/31 05:49:35;;;;;;;12.13;7.55;;;;;;;18.77;100.00;100610.28;20740037;28;20140;-68
2022/08/31 05:59:36;;;;;;;11.18;8.80;;;;;;;18.78;100.00;100601.41;20739649;28;20050;-68
2022/08/31 06:09:38;;;;;;;11.65;8.40;;;;;;;19.07;100.00;100617.72;20737682;28;20042;-68
2022/08/31 06:19:42;;;;;;;11.97;8.33;;;;;;;19.13;100.00;100623.63;20737889;28;21414;-68
2022/08/31 06:29:43;;;;;;;11.95;8.52;;;;;;;18.95;100.00;100629.78;20736766;28;20316;-69
2022/08/31 06:39:45;;;;;;;11.80;7.25;;;;;;;19.06;100.00;100637.25;20734735;28;20057;-68
2022/08/31 06:49:46;;;;;;;11.20;8.52;;;;;;;19.18;100.00;100640.19;20735806;28;20474;-68
2022/08/31 06:59:48;;;;;;;10.50;7.57;;;;;;;19.28;100.00;100637.09;20735608;28;20422;-69
2022/08/31 07:09:49;;;;;;;11.30;8.45;;;;;;;19.28;100.00;100642.41;20734020;28;20061;-68
2022/08/31 07:19:51;;;;;;;9.52;5.80;;;;;;;19.38;100.00;100651.66;20734451;28;20049;-68
2022/08/31 07:29:52;;;;;;;12.30;5.40;;;;;;;19.38;100.00;100654.31;20735074;28;20384;-68
2022/08/31 07:50:14;;;;;;;10.90;5.30;;;;;;;19.55;100.00;100664.97;20830080;28;20085;-68
2022/08/31 08:00:16;;;;;;;11.70;5.10;;;;;;;19.75;99.86;100663.19;20828989;28;20095;-69
2022/08/31 08:10:22;;;;;;;9.90;5.15;;;;;;;19.82;96.95;100670.75;20828491;28;20057;-68
2022/08/31 08:20:23;;;;;;;11.25;6.13;;;;;;;18.58;100.00;100692.44;20827582;28;20056;-69
2022/08/31 08:30:39;;;;;;;12.20;7.15;;;;;;;17.84;100.00;100718.56;20827030;28;20049;-75
2022/08/31 08:40:41;;;;;;;12.80;8.30;;;;;;;18.16;100.00;100708.44;20826466;28;20057;-73
2022/08/31 08:50:42;;;;;;;13.75;8.30;;;;;;;18.59;100.00;100717.16;20824562;28;20052;-70
2022/08/31 09:00:45;;;;;;;12.75;7.65;;;;;;;18.72;100.00;100731.66;20823836;28;20447;-70
2022/08/31 09:10:46;;;;;;;15.95;8.88;;;;;;;18.86;100.00;100733.69;20823780;28;20383;-69
2022/08/31 09:20:50;;;;;;;11.88;7.35;;;;;;;18.84;100.00;100748.84;20822878;28;20057;-70
2022/08/31 09:30:52;;;;;;;17.23;9.13;;;;;;;18.82;100.00;100755.97;20822246;28;20517;-69
2022/08/31 09:40:53;;;;;;;16.95;8.05;;;;;;;18.73;100.00;100767.00;20821303;28;20049;-70
2022/08/31 09:50:55;;;;;;;13.50;9.52;;;;;;;18.68;100.00;100772.47;20820666;28;20132;-74
2022/08/31 10:00:56;;;;;;;15.65;10.30;;;;;;;18.28;100.00;100776.81;20819872;28;20049;-72
2022/08/31 10:11:00;;;;;;;14.60;9.10;;;;;;;18.42;100.00;100769.16;20819937;28;20049;-72
2022/08/31 10:21:06;;;;;;;16.83;10.65;;;;;;;18.62;100.00;100760.34;20818883;28;20049;-74
2022/08/31 10:31:08;;;;;;;16.20;11.68;;;;;;;18.92;100.00;100752.88;20817859;28;20045;-73
2022/08/31 10:41:10;;;;;;;15.68;11.23;;;;;;;19.11;100.00;100747.56;20817930;28;20053;-72
2022/08/31 10:51:12;;;;;;;16.58;10.60;;;;;;;19.32;100.00;100745.75;20817942;28;20064;-71
2022/08/31 11:01:15;;;;;;;15.05;9.13;;;;;;;19.64;100.00;100754.91;20817835;28;20056;-71
2022/08/31 11:11:16;;;;;;;10.98;6.20;;;;;;;19.57;100.00;100750.75;20817079;28;20060;-70
2022/08/31 11:21:18;;;;;;;10.38;5.93;;;;;;;19.26;100.00;100745.13;20829417;28;20052;-71
2022/08/31 11:31:22;;;;;;;10.52;6.22;;;;;;;19.01;100.00;100746.25;20831373;28;20054;-70
2022/08/31 11:41:25;;;;;;;11.23;7.03;;;;;;;18.65;100.00;100739.00;20830679;28;20470;-72
2022/08/31 11:51:32;;;;;;;10.50;7.07;;;;;;;18.40;100.00;100739.19;20829720;28;20057;-72
2022/08/31 12:01:41;;;;;;;12.18;7.05;;;;;;;18.36;100.00;100748.22;20829084;28;20052;-72
2022/08/31 12:11:46;;;;;;;11.60;7.82;;;;;;;18.22;100.00;100742.63;20827941;28;20053;-72
2022/08/31 12:32:08;;;;;;;12.63;7.40;;;;;;;18.40;100.00;100733.03;20825112;28;20060;-72
2022/08/31 12:42:11;;;;;;;10.03;6.50;;;;;;;18.73;100.00;100730.72;20826308;28;20080;-72
2022/08/31 12:52:12;;;;;;;18.15;7.72;;;;;;;18.83;100.00;100707.28;20825213;28;20053;-72
2022/08/31 13:02:14;;;;;;;11.10;6.95;;;;;;;18.97;100.00;100699.56;20824266;28;20061;-71
2022/08/31 13:12:17;;;;;;;9.90;5.75;;;;;;;19.13;100.00;100687.31;20823496;28;20049;-71
2022/08/31 13:22:21;;;;;;;13.57;6.68;;;;;;;19.41;100.00;100691.34;20821359;28;20052;-70
2022/08/31 13:32:33;;;;;;;9.60;6.15;;;;;;;19.56;100.00;100679.13;20821805;28;20089;-71
2022/08/31 13:42:40;;;;;;;8.98;6.68;;;;;;;20.03;100.00;100668.84;20821639;28;20425;-70
2022/08/31 13:52:41;;;;;;;11.75;7.43;;;;;;;20.11;100.00;100665.75;20820499;28;20060;-70
2022/08/31 14:02:43;;;;;;;12.07;8.82;;;;;;;20.09;100.00;100657.03;20819177;28;20099;-70
2022/08/31 14:12:45;;;;;;;10.38;7.93;;;;;;;20.04;100.00;100653.75;20819336;28;20059;-70
2022/08/31 14:22:48;;;;;;;9.13;7.20;;;;;;;20.23;100.00;100647.41;20818732;28;20418;-70
2022/08/31 14:32:50;;;;;;;10.83;7.20;;;;;;;20.60;100.00;100637.53;20817173;28;20053;-69
2022/08/31 14:42:51;;;;;;;10.25;7.20;;;;;;;20.31;100.00;100638.16;20817424;28;20497;-69
2022/08/31 14:52:53;;;;;;;13.32;8.55;;;;;;;20.57;100.00;100631.50;20825922;28;20049;-69
2022/08/31 15:02:55;;;;;;;15.18;8.65;;;;;;;20.88;100.00;100620.03;20833080;28;20053;-68
2022/08/31 15:13:06;;;;;;;13.88;9.45;;;;;;;21.03;100.00;100624.50;20833349;28;20123;-69
2022/08/31 15:23:07;;;;;;;13.07;9.95;;;;;;;20.94;100.00;100617.06;20832399;28;20505;-69
2022/08/31 15:33:09;;;;;;;16.95;10.77;;;;;;;21.00;100.00;100606.06;20830666;28;20061;-68
2022/08/31 15:43:14;;;;;;;15.57;10.80;;;;;;;21.24;100.00;100596.69;20830606;28;20059;-69
2022/08/31 15:53:15;;;;;;;;;;;;;;;21.42;100.00;100588.63;20829983;28;20056;-68
2022/08/31 16:03:17;;;;;;;16.45;9.73;;;;;;;21.54;98.11;100568.41;20827738;28;20007;-68
2022/08/31 16:13:18;;;;;;;14.32;9.05;;;;;;;21.74;99.14;100568.06;20853077;28;20063;-69
2022/08/31 16:23:20;;;;;;;12.85;8.80;;;;;;;22.02;95.59;100551.28;20861206;28;20049;-69
2022/08/31 16:33:21;;;;;;;13.18;8.20;;;;;;;22.03;95.13;100547.66;20900165;28;20829;-69
2022/08/31 16:43:23;;;;;;;12.77;8.15;;;;;;;22.00;94.94;100550.53;20833960;28;20080;-69
2022/08/31 16:53:24;;;;;;;13.02;7.32;;;;;;;21.78;93.10;100558.94;20817246;28;20055;-69
2022/08/31 17:03:26;;;;;;;11.32;7.65;;;;;;;21.60;94.20;100554.72;20816066;28;20081;-69
2022/08/31 17:13:27;;;;;;;10.70;7.07;;;;;;;21.44;95.96;100550.28;20848198;28;20059;-69
2022/08/31 17:23:28;;;;;;;10.93;7.35;;;;;;;21.30;97.63;100555.53;20896763;28;20041;-69
2022/08/31 17:33:30;;;;;;;12.30;7.28;;;;;;;21.17;100.00;100563.34;20896087;28;20490;-69
2022/08/31 17:43:34;;;;;;;9.90;7.55;;;;;;;21.02;100.00;100574.88;20895817;28;20497;-69
2022/08/31 17:53:36;;;;;;;9.25;6.95;;;;;;;20.87;100.00;100573.06;20895759;28;20449;-69
2022/08/31 18:03:37;;;;;;;11.07;8.82;;;;;;;20.84;100.00;100578.56;20894111;28;20049;-69
2022/08/31 18:13:40;;;;;;;15.23;12.07;;;;;;;20.70;100.00;100580.19;20859734;28;20486;-69
2022/08/31 18:23:41;;;;;;;14.48;10.27;;;;;;;20.62;100.00;100581.56;20811272;28;20685;-69
2022/08/31 18:33:50;;;;;;;11.35;8.02;;;;;;;20.48;100.00;100584.97;20808723;28;20136;-69
2022/08/31 18:54:13;;;;;;;10.77;8.23;;;;;;;19.88;100.00;100596.06;20809262;28;20528;-69
2022/08/31 19:04:15;;;;;;;9.48;7.97;;;;;;;19.78;100.00;100601.91;20808010;28;20077;-69
2022/08/31 19:14:22;;;;;;;11.18;8.35;;;;;;;19.62;100.00;100602.66;20849088;28;20501;-69
2022/08/31 19:24:23;;;;;;;13.10;8.65;;;;;;;19.43;100.00;100602.69;20889547;28;20063;-70
2022/08/31 19:34:24;;;;;;;12.35;8.90;;;;;;;19.17;100.00;100593.34;20889711;28;20525;-69
2022/08/31 19:44:26;;;;;;;15.40;9.25;;;;;;;19.02;100.00;100594.09;20904156;28;20057;-69
2022/08/31 19:54:28;;;;;;;12.32;9.05;;;;;;;18.71;100.00;100590.22;20903568;28;20604;-69
2022/08/31 20:04:32;;;;;;;12.93;10.13;;;;;;;18.51;100.00;100592.88;20902637;28;20095;-69
2022/08/31 20:14:34;;;;;;;14.48;9.80;;;;;;;18.52;100.00;100588.44;20859412;28;20136;-69
2022/08/31 20:24:36;;;;;;;14.20;10.20;;;;;;;18.33;100.00;100583.97;20819050;28;20516;-69
2022/08/31 20:34:37;;;;;;;13.75;9.88;;;;;;;18.15;100.00;100588.28;20817082;28;20052;-69
2022/08/31 20:44:39;;;;;;;15.15;9.68;;;;;;;18.10;100.00;100586.78;20817642;28;20060;-69
2022/08/31 20:54:41;;;;;;;12.15;9.57;;;;;;;17.97;100.00;100593.56;20815946;28;20136;-69
2022/08/31 21:04:46;;;;;;;14.27;9.40;;;;;;;17.74;100.00;100594.53;20815725;28;20049;-69
2022/08/31 21:14:48;;;;;;;13.80;8.98;;;;;;;17.57;100.00;100592.53;20858533;28;20049;-69
2022/08/31 21:24:49;;;;;;;13.57;9.45;;;;;;;17.43;100.00;100601.03;20896127;28;20158;-69
2022/08/31 21:34:51;;;;;;;11.93;9.10;;;;;;;17.48;100.00;100592.91;20894794;28;20045;-69
2022/08/31 21:44:52;;;;;;;12.35;9.13;;;;;;;17.42;100.00;100583.44;20895141;28;20414;-69
2022/08/31 21:54:53;;;;;;;12.63;8.57;;;;;;;17.36;100.00;100594.28;20894487;28;20059;-68
2022/08/31 22:04:55;;;;;;;13.00;8.07;;;;;;;17.30;100.00;100605.13;20852062;28;20057;-69
2022/08/31 22:14:57;;;;;;;12.43;8.80;;;;;;;17.06;100.00;100613.13;20818201;28;20052;-69
2022/08/31 22:25:01;;;;;;;12.90;9.02;;;;;;;16.87;100.00;100617.41;20818493;28;20055;-69
2022/08/31 22:35:02;;;;;;;12.55;8.88;;;;;;;16.64;100.00;100624.38;20818096;28;20061;-69
2022/08/31 22:45:03;;;;;;;13.93;9.43;;;;;;;16.57;100.00;100617.56;20817001;28;20061;-69
2022/08/31 22:55:05;;;;;;;15.75;9.52;;;;;;;16.47;100.00;100620.63;20817036;28;20046;-69
2022/08/31 23:05:08;;;;;;;15.57;9.25;;;;;;;16.32;100.00;100614.97;20815766;28;20061;-69
2022/08/31 23:15:11;;;;;;;9.95;7.97;;;;;;;16.32;100.00;100604.41;20826069;28;20060;-69
2022/08/31 23:25:15;;;;;;;9.57;7.97;;;;;;;16.23;100.00;100603.88;20832102;28;20046;-69
2022/08/31 23:35:17;;;;;;;14.23;8.27;;;;;;;16.11;100.00;100598.13;20830783;28;20057;-69
2022/08/31 23:45:19;;;;;;;13.38;7.88;;;;;;;16.01;100.00;100598.50;20830721;28;20487;-69
2022/08/31 23:55:25;;;;;;;12.88;7.75;;;;;;;15.91;100.00;100597.97;20830429;28;20493;-69
